Time;durP1;ratioP1;P1;durP2;ratioP2;P2;SDS_P1;SDS_P2;PMS_P1;PMS_P2;Temp;Humidity;BMP_temperature;BMP_pressure;BME280_temperature;BME280_humidity;BME280_pressure;Samples;Min_cycle;Max_cycle;Signal;HPM_P1;HPM_P2
2023/09/21 00:00:08;;;;;;;4.73;4.30;;;;;;;;;;5066425;28;20480;-80
2023/09/21 00:02:35;;;;;;;5.13;4.63;;;;;;;;;;5064918;28;20491;-80
2023/09/21 00:05:06;;;;;;;6.70;5.30;;;;;;;;;;5074847;28;20456;-81
2023/09/21 00:07:36;;;;;;;5.10;4.20;;;;;;;;;;5080967;28;20472;-80
2023/09/21 00:10:06;;;;;;;6.00;5.47;;;;;;;;;;5081521;28;20470;-80
2023/09/21 00:12:35;;;;;;;4.90;4.37;;;;;;;;;;5070242;28;20456;-80
2023/09/21 00:15:06;;;;;;;6.30;5.43;;;;;;;;;;5068962;28;20457;-80
2023/09/21 00:17:33;;;;;;;5.70;5.10;;;;;;;;;;5072536;28;20486;-80
2023/09/21 00:20:00;;;;;;;7.23;5.57;;;;;;;;;;5072610;28;20532;-80
2023/09/21 00:22:29;;;;;;;6.00;5.40;;;;;;;;;;5061510;28;20927;-80
2023/09/21 00:24:56;;;;;;;7.47;5.60;;;;;;;;;;5069533;28;20518;-81
2023/09/21 00:27:28;;;;;;;7.10;5.30;;;;;;;;;;5079344;28;20447;-80
2023/09/21 00:29:57;;;;;;;9.90;5.90;;;;;;;;;;5082981;28;20484;-81
2023/09/21 00:32:25;;;;;;;7.63;6.50;;;;;;;;;;5081555;28;20451;-80
2023/09/21 00:34:52;;;;;;;8.43;7.03;;;;;;;;;;5081681;28;20479;-80
2023/09/21 00:37:19;;;;;;;7.37;6.77;;;;;;;;;;5065058;28;20471;-80
2023/09/21 00:39:46;;;;;;;8.40;7.03;;;;;;;;;;5081695;28;20475;-81
2023/09/21 00:42:13;;;;;;;7.83;7.13;;;;;;;;;;5080050;28;20457;-80
2023/09/21 00:44:41;;;;;;;8.13;6.90;;;;;;;;;;5071549;28;20470;-80
2023/09/21 00:47:09;;;;;;;7.40;6.67;;;;;;;;;;5080007;28;20456;-80
2023/09/21 00:49:38;;;;;;;8.40;7.50;;;;;;;;;;5071654;28;20466;-80
2023/09/21 00:52:11;;;;;;;7.93;6.90;;;;;;;;;;5089303;28;20455;-79
2023/09/21 00:54:39;;;;;;;7.30;6.60;;;;;;;;;;5093167;28;20973;-80
2023/09/21 00:57:06;;;;;;;6.30;5.70;;;;;;;;;;5095684;28;20893;-79
2023/09/21 00:59:35;;;;;;;6.90;6.20;;;;;;;;;;5091323;28;21023;-79
2023/09/21 01:02:03;;;;;;;6.23;5.60;;;;;;;;;;5075489;28;20548;-79
2023/09/21 01:04:32;;;;;;;8.83;5.97;;;;;;;;;;5076126;28;20444;-79
2023/09/21 01:07:02;;;;;;;6.20;5.50;;;;;;;;;;5088940;28;20529;-79
2023/09/21 01:09:29;;;;;;;6.20;4.33;;;;;;;;;;5072610;28;20456;-79
2023/09/21 01:11:59;;;;;;;7.10;4.23;;;;;;;;;;5075072;28;20485;-79
2023/09/21 01:14:27;;;;;;;5.73;4.90;;;;;;;;;;5072335;28;20461;-79
2023/09/21 01:16:55;;;;;;;7.10;5.17;;;;;;;;;;5072327;28;20798;-78
2023/09/21 01:19:23;;;;;;;4.33;3.93;;;;;;;;;;5075579;28;20493;-78
2023/09/21 01:21:52;;;;;;;5.50;5.00;;;;;;;;;;5083711;28;20441;-79
2023/09/21 01:24:23;;;;;;;4.67;4.17;;;;;;;;;;5085656;28;20460;-78
2023/09/21 01:26:50;;;;;;;6.57;4.70;;;;;;;;;;5077192;28;20468;-77
2023/09/21 01:29:17;;;;;;;7.27;4.33;;;;;;;;;;5077574;28;20480;-77
2023/09/21 01:31:45;;;;;;;6.17;4.50;;;;;;;;;;5083513;28;20472;-77
2023/09/21 01:34:13;;;;;;;4.67;4.23;;;;;;;;;;5088749;28;20480;-79
2023/09/21 01:36:40;;;;;;;4.57;4.13;;;;;;;;;;5075114;28;20459;-79
2023/09/21 01:39:09;;;;;;;5.50;4.23;;;;;;;;;;5075690;28;20487;-79
2023/09/21 01:41:38;;;;;;;9.23;4.17;;;;;;;;;;5073881;28;20547;-78
2023/09/21 01:44:06;;;;;;;5.20;4.60;;;;;;;;;;5075090;28;20536;-79
2023/09/21 01:46:33;;;;;;;5.43;3.80;;;;;;;;;;5075664;28;20439;-79
2023/09/21 01:49:00;;;;;;;5.73;5.13;;;;;;;;;;5077479;28;20449;-79
2023/09/21 01:51:27;;;;;;;7.07;5.43;;;;;;;;;;5077977;28;20477;-80
2023/09/21 01:53:54;;;;;;;7.57;5.57;;;;;;;;;;5096248;28;20503;-77
2023/09/21 01:56:22;;;;;;;7.17;5.50;;;;;;;;;;5096705;28;20480;-80
2023/09/21 01:58:50;;;;;;;8.53;5.30;;;;;;;;;;5095066;28;20483;-79
2023/09/21 02:01:18;;;;;;;6.40;5.80;;;;;;;;;;5097276;28;20490;-79
2023/09/21 02:03:45;;;;;;;6.20;5.67;;;;;;;;;;5096776;28;20459;-80
2023/09/21 02:06:12;;;;;;;6.27;5.67;;;;;;;;;;5096153;28;20478;-79
2023/09/21 02:08:39;;;;;;;6.67;5.60;;;;;;;;;;5094263;28;20448;-79
2023/09/21 02:11:07;;;;;;;5.53;4.90;;;;;;;;;;5076239;28;20572;-79
2023/09/21 02:13:34;;;;;;;6.37;4.40;;;;;;;;;;5096109;28;20443;-79
2023/09/21 02:16:04;;;;;;;5.07;4.57;;;;;;;;;;5087685;28;20459;-79
2023/09/21 02:18:31;;;;;;;8.20;4.37;;;;;;;;;;5092564;28;20472;-79
2023/09/21 02:21:00;;;;;;;4.60;4.20;;;;;;;;;;5083268;28;20452;-79
2023/09/21 02:23:28;;;;;;;5.77;4.60;;;;;;;;;;5094204;28;20433;-79
2023/09/21 02:25:55;;;;;;;4.13;3.70;;;;;;;;;;5076143;28;20461;-79
2023/09/21 02:28:24;;;;;;;7.03;5.30;;;;;;;;;;5075715;28;20478;-79
2023/09/21 02:30:51;;;;;;;5.00;4.23;;;;;;;;;;5074927;28;20528;-79
2023/09/21 02:33:20;;;;;;;4.30;3.87;;;;;;;;;;5074444;28;20531;-79
2023/09/21 02:35:47;;;;;;;4.23;3.83;;;;;;;;;;5074485;28;20445;-79
2023/09/21 02:38:14;;;;;;;5.30;4.20;;;;;;;;;;5083381;28;20478;-79
2023/09/21 02:40:45;;;;;;;5.43;4.60;;;;;;;;;;5081321;28;20479;-79
2023/09/21 02:43:13;;;;;;;4.47;4.07;;;;;;;;;;5074363;28;20441;-79
2023/09/21 02:45:40;;;;;;;7.03;4.67;;;;;;;;;;5084899;28;20458;-79
2023/09/21 02:48:07;;;;;;;5.23;4.73;;;;;;;;;;5087073;28;20472;-79
2023/09/21 02:50:36;;;;;;;5.87;4.23;;;;;;;;;;5086206;28;20881;-77
2023/09/21 02:53:05;;;;;;;7.00;4.83;;;;;;;;;;5095300;28;20494;-79
2023/09/21 02:55:33;;;;;;;4.50;4.10;;;;;;;;;;5093852;28;20483;-79
2023/09/21 02:58:04;;;;;;;5.17;4.10;;;;;;;;;;5083308;28;20520;-79
2023/09/21 03:00:35;;;;;;;9.17;4.20;;;;;;;;;;5087744;28;20448;-79
2023/09/21 03:03:04;;;;;;;5.17;4.23;;;;;;;;;;5096532;28;20879;-78
2023/09/21 03:05:33;;;;;;;8.57;5.40;;;;;;;;;;5095203;28;20428;-79
2023/09/21 03:08:12;;;;;;;11.90;5.13;;;;;;;;;;5080688;28;20453;-80
2023/09/21 03:10:40;;;;;;;8.87;5.43;;;;;;;;;;5075197;28;20477;-79
2023/09/21 03:13:10;;;;;;;9.03;6.87;;;;;;;;;;5091460;28;20430;-78
2023/09/21 03:15:37;;;;;;;7.17;6.53;;;;;;;;;;5095924;28;20423;-78
2023/09/21 03:18:09;;;;;;;14.17;8.73;;;;;;;;;;5096680;28;20452;-79
2023/09/21 03:20:37;;;;;;;8.90;7.83;;;;;;;;;;5084035;28;20495;-79
2023/09/21 03:23:06;;;;;;;9.47;8.30;;;;;;;;;;5083752;28;20456;-79
2023/09/21 03:25:40;;;;;;;9.10;8.20;;;;;;;;;;5074645;28;20888;-77
2023/09/21 03:28:10;;;;;;;9.37;8.30;;;;;;;;;;5075970;28;20449;-78
2023/09/21 03:30:39;;;;;;;10.90;7.70;;;;;;;;;;5077253;28;20464;-79
2023/09/21 03:33:06;;;;;;;10.40;8.67;;;;;;;;;;5079636;28;20421;-79
2023/09/21 03:35:33;;;;;;;8.90;8.00;;;;;;;;;;5079772;28;20475;-79
2023/09/21 03:38:01;;;;;;;9.70;8.30;;;;;;;;;;5080239;28;20480;-79
2023/09/21 03:40:30;;;;;;;9.23;8.33;;;;;;;;;;5081948;28;20504;-79
2023/09/21 03:42:57;;;;;;;13.73;8.70;;;;;;;;;;5099561;28;20460;-79
2023/09/21 03:45:25;;;;;;;9.03;8.13;;;;;;;;;;5081523;28;20437;-79
2023/09/21 03:47:52;;;;;;;8.80;7.90;;;;;;;;;;5079989;28;20469;-79
2023/09/21 03:50:20;;;;;;;12.17;9.10;;;;;;;;;;5080580;28;20482;-79
2023/09/21 03:52:48;;;;;;;11.30;8.60;;;;;;;;;;5094737;28;20472;-79
2023/09/21 03:55:16;;;;;;;12.80;7.00;;;;;;;;;;5079252;28;20463;-77
2023/09/21 03:57:46;;;;;;;10.03;8.17;;;;;;;;;;5098931;28;20459;-79
2023/09/21 04:00:25;;;;;;;11.30;8.80;;;;;;;;;;5098751;28;20487;-78
2023/09/21 04:02:53;;;;;;;9.43;8.50;;;;;;;;;;5093212;28;20451;-80
2023/09/21 04:05:20;;;;;;;11.37;9.20;;;;;;;;;;5078517;28;20468;-79
2023/09/21 04:07:49;;;;;;;12.43;10.90;;;;;;;;;;5077745;28;20464;-79
2023/09/21 04:10:16;;;;;;;20.00;12.27;;;;;;;;;;5076750;28;20472;-79
2023/09/21 04:12:45;;;;;;;20.20;12.97;;;;;;;;;;5083467;28;20444;-79
2023/09/21 04:15:13;;;;;;;17.63;11.80;;;;;;;;;;5098921;28;20462;-80
2023/09/21 04:17:40;;;;;;;15.60;10.70;;;;;;;;;;5097945;28;20436;-77
2023/09/21 04:20:12;;;;;;;12.27;9.53;;;;;;;;;;5096704;28;20543;-79
2023/09/21 04:22:40;;;;;;;14.27;10.73;;;;;;;;;;5097883;28;20870;-79
2023/09/21 04:25:09;;;;;;;14.30;10.10;;;;;;;;;;5097198;28;20535;-79
2023/09/21 04:27:37;;;;;;;11.87;10.27;;;;;;;;;;5097874;28;20448;-79
2023/09/21 04:30:06;;;;;;;10.47;8.87;;;;;;;;;;5097542;28;20502;-79
2023/09/21 04:32:35;;;;;;;12.20;8.73;;;;;;;;;;5091075;28;20448;-79
2023/09/21 04:35:05;;;;;;;11.87;9.30;;;;;;;;;;5099081;28;20464;-79
2023/09/21 04:37:33;;;;;;;10.50;9.20;;;;;;;;;;5098632;28;20447;-79
2023/09/21 04:40:00;;;;;;;9.10;8.20;;;;;;;;;;5098761;28;20498;-79
2023/09/21 04:42:29;;;;;;;9.73;8.00;;;;;;;;;;5098156;28;20851;-79
2023/09/21 04:44:57;;;;;;;10.00;9.00;;;;;;;;;;5096931;28;20463;-79
2023/09/21 04:47:27;;;;;;;9.30;8.40;;;;;;;;;;5097683;28;20448;-79
2023/09/21 04:49:54;;;;;;;9.40;7.47;;;;;;;;;;5091156;28;20472;-79
2023/09/21 04:52:22;;;;;;;10.30;8.53;;;;;;;;;;5077009;28;20455;-79
2023/09/21 04:54:51;;;;;;;12.00;9.77;;;;;;;;;;5077093;28;20412;-79
2023/09/21 04:57:18;;;;;;;11.90;9.30;;;;;;;;;;5094798;28;20444;-78
2023/09/21 04:59:46;;;;;;;9.90;8.90;;;;;;;;;;5096816;28;20491;-79
2023/09/21 05:02:13;;;;;;;12.40;10.07;;;;;;;;;;5095622;28;20972;-79
2023/09/21 05:04:42;;;;;;;12.23;8.80;;;;;;;;;;5095830;28;20511;-79
2023/09/21 05:07:09;;;;;;;10.90;9.80;;;;;;;;;;5095750;28;20473;-80
2023/09/21 05:09:36;;;;;;;12.97;9.30;;;;;;;;;;5096407;28;20483;-79
2023/09/21 05:12:05;;;;;;;11.10;10.00;;;;;;;;;;5089214;28;20496;-78
2023/09/21 05:14:32;;;;;;;8.93;8.07;;;;;;;;;;5076293;28;20539;-78
2023/09/21 05:16:59;;;;;;;8.97;8.17;;;;;;;;;;5075216;28;20483;-79
2023/09/21 05:19:27;;;;;;;10.07;8.30;;;;;;;;;;5077517;28;20495;-77
2023/09/21 05:21:57;;;;;;;8.20;7.43;;;;;;;;;;5089876;28;20500;-79
2023/09/21 05:24:25;;;;;;;10.27;7.90;;;;;;;;;;5093852;28;20436;-78
2023/09/21 05:26:52;;;;;;;9.87;8.57;;;;;;;;;;5094516;28;20452;-79
2023/09/21 05:29:20;;;;;;;9.67;7.83;;;;;;;;;;5093226;28;20590;-79
2023/09/21 05:31:48;;;;;;;8.30;7.50;;;;;;;;;;5087556;28;20490;-79
2023/09/21 05:34:15;;;;;;;7.83;7.10;;;;;;;;;;5077190;28;20449;-78
2023/09/21 05:36:43;;;;;;;6.80;6.10;;;;;;;;;;5093671;28;20519;-79
2023/09/21 05:39:14;;;;;;;6.63;6.03;;;;;;;;;;5062437;28;20489;-80
2023/09/21 05:41:42;;;;;;;7.40;6.10;;;;;;;;;;5058193;28;20504;-80
2023/09/21 05:44:09;;;;;;;7.80;6.10;;;;;;;;;;5059414;28;20904;-79
2023/09/21 05:46:36;;;;;;;8.17;6.43;;;;;;;;;;5060579;28;20571;-80
2023/09/21 05:49:05;;;;;;;6.00;5.50;;;;;;;;;;5060572;28;20453;-79
2023/09/21 05:51:33;;;;;;;5.93;5.43;;;;;;;;;;5058925;28;20526;-79
2023/09/21 05:54:01;;;;;;;6.00;5.50;;;;;;;;;;5059720;28;20460;-79
2023/09/21 05:56:30;;;;;;;7.40;6.00;;;;;;;;;;5060936;28;20544;-80
2023/09/21 05:58:59;;;;;;;6.70;6.17;;;;;;;;;;5061088;28;20461;-79
2023/09/21 06:01:29;;;;;;;7.60;6.90;;;;;;;;;;5061966;28;20472;-80
2023/09/21 06:03:57;;;;;;;9.83;8.30;;;;;;;;;;5060967;28;20503;-79
2023/09/21 06:06:28;;;;;;;13.80;10.00;;;;;;;;;;5061294;28;20919;-79
2023/09/21 06:08:55;;;;;;;13.37;11.97;;;;;;;;;;5061076;28;20465;-80
2023/09/21 06:11:22;;;;;;;9.00;6.50;;;;;;;;;;5061456;28;20472;-80
2023/09/21 06:13:52;;;;;;;7.00;5.20;;;;;;;;;;5060829;28;20802;-79
2023/09/21 06:16:19;;;;;;;7.33;5.27;;;;;;;;;;5060160;28;20445;-79
2023/09/21 06:18:48;;;;;;;6.03;5.03;;;;;;;;;;5059022;28;20457;-79
2023/09/21 06:21:15;;;;;;;3.90;3.60;;;;;;;;;;5058941;28;20553;-80
2023/09/21 06:23:44;;;;;;;3.83;3.37;;;;;;;;;;5056452;28;20448;-80
2023/09/21 06:26:14;;;;;;;4.73;3.00;;;;;;;;;;5055474;28;20457;-80
2023/09/21 06:28:43;;;;;;;3.50;3.20;;;;;;;;;;5056578;28;20464;-80
2023/09/21 06:31:13;;;;;;;4.13;3.70;;;;;;;;;;5057772;28;20518;-80
2023/09/21 06:33:40;;;;;;;4.17;3.33;;;;;;;;;;5056372;28;20510;-80
2023/09/21 06:36:08;;;;;;;3.83;3.53;;;;;;;;;;5056235;28;20447;-80
2023/09/21 06:38:35;;;;;;;2.90;2.70;;;;;;;;;;5056566;28;20955;-80
2023/09/21 06:41:02;;;;;;;3.90;2.90;;;;;;;;;;5056202;28;20496;-81
2023/09/21 06:43:30;;;;;;;3.23;2.93;;;;;;;;;;5055968;28;20571;-80
2023/09/21 06:45:58;;;;;;;6.73;3.20;;;;;;;;;;5056248;28;20544;-80
2023/09/21 06:48:26;;;;;;;3.50;3.13;;;;;;;;;;5055757;28;20476;-80
2023/09/21 06:50:53;;;;;;;3.40;2.97;;;;;;;;;;5055201;28;20475;-80
2023/09/21 06:53:24;;;;;;;4.37;2.87;;;;;;;;;;5055417;28;20951;-81
2023/09/21 06:55:51;;;;;;;2.80;2.47;;;;;;;;;;5055761;28;20444;-81
2023/09/21 06:58:18;;;;;;;2.73;2.37;;;;;;;;;;5055114;28;20802;-80
2023/09/21 07:00:45;;;;;;;4.00;3.20;;;;;;;;;;5055346;28;20498;-80
2023/09/21 07:03:13;;;;;;;4.27;2.83;;;;;;;;;;5055582;28;20833;-80
2023/09/21 07:05:43;;;;;;;4.30;2.83;;;;;;;;;;5055073;28;20457;-80
2023/09/21 07:08:11;;;;;;;3.33;2.90;;;;;;;;;;5055459;28;20443;-80
2023/09/21 07:10:38;;;;;;;5.80;3.13;;;;;;;;;;5055477;28;20830;-80
2023/09/21 07:13:05;;;;;;;6.40;3.20;;;;;;;;;;5055062;28;20448;-81
2023/09/21 07:15:32;;;;;;;3.53;3.00;;;;;;;;;;5055143;28;20484;-80
2023/09/21 07:17:59;;;;;;;4.50;3.33;;;;;;;;;;5055084;28;20947;-81
2023/09/21 07:20:26;;;;;;;3.30;2.63;;;;;;;;;;5054573;28;20500;-81
2023/09/21 07:22:55;;;;;;;10.03;3.33;;;;;;;;;;5054674;28;20456;-81
2023/09/21 07:25:22;;;;;;;2.80;2.57;;;;;;;;;;5054772;28;20452;-81
2023/09/21 07:27:51;;;;;;;3.90;2.80;;;;;;;;;;5054561;28;20749;-81
2023/09/21 07:30:18;;;;;;;3.70;3.37;;;;;;;;;;5054390;28;20563;-80
2023/09/21 07:32:46;;;;;;;5.27;2.83;;;;;;;;;;5054086;28;20465;-82
2023/09/21 07:35:14;;;;;;;3.70;2.70;;;;;;;;;;5054035;28;20787;-81
2023/09/21 07:37:45;;;;;;;2.67;2.30;;;;;;;;;;5053608;28;20543;-82
2023/09/21 07:40:14;;;;;;;3.47;3.13;;;;;;;;;;5053191;28;20534;-82
2023/09/21 07:42:42;;;;;;;4.30;3.37;;;;;;;;;;5053523;28;20876;-81
2023/09/21 07:45:09;;;;;;;2.60;2.40;;;;;;;;;;5053724;28;20476;-82
2023/09/21 07:47:37;;;;;;;3.50;2.43;;;;;;;;;;5053655;28;20453;-81
2023/09/21 07:50:05;;;;;;;3.43;2.50;;;;;;;;;;5054071;28;20476;-81
2023/09/21 07:52:33;;;;;;;3.97;2.50;;;;;;;;;;5053824;28;20459;-81
2023/09/21 07:55:02;;;;;;;3.10;2.80;;;;;;;;;;5053902;28;20457;-81
2023/09/21 07:57:32;;;;;;;3.30;2.60;;;;;;;;;;5054196;28;20819;-81
2023/09/21 07:59:59;;;;;;;3.50;2.23;;;;;;;;;;5053830;28;20500;-81
2023/09/21 08:02:27;;;;;;;3.10;2.80;;;;;;;;;;5054122;28;20461;-81
2023/09/21 08:04:54;;;;;;;4.67;2.83;;;;;;;;;;5054537;28;20476;-81
2023/09/21 08:07:25;;;;;;;6.63;2.90;;;;;;;;;;5054003;28;20498;-81
2023/09/21 08:09:54;;;;;;;5.30;2.57;;;;;;;;;;5053515;28;20472;-81
2023/09/21 08:12:21;;;;;;;6.93;5.77;;;;;;;;;;5053518;28;20465;-81
2023/09/21 08:14:50;;;;;;;5.80;2.57;;;;;;;;;;5053804;28;20449;-81
2023/09/21 08:17:17;;;;;;;4.00;3.03;;;;;;;;;;5055264;28;20449;-81
2023/09/21 08:19:44;;;;;;;4.63;2.87;;;;;;;;;;5057087;28;20457;-81
2023/09/21 08:22:12;;;;;;;3.00;2.70;;;;;;;;;;5057683;28;20493;-81
2023/09/21 08:24:41;;;;;;;5.37;3.07;;;;;;;;;;5056865;28;20454;-81
2023/09/21 08:27:08;;;;;;;8.57;2.83;;;;;;;;;;5056797;28;20455;-81
2023/09/21 08:29:35;;;;;;;3.83;2.43;;;;;;;;;;5056800;28;20436;-81
2023/09/21 08:32:04;;;;;;;5.53;3.97;;;;;;;;;;5056730;28;20547;-81
2023/09/21 08:34:31;;;;;;;6.20;3.00;;;;;;;;;;5056369;28;20449;-81
2023/09/21 08:36:59;;;;;;;3.00;2.70;;;;;;;;;;5056265;28;20457;-81
2023/09/21 08:39:26;;;;;;;5.63;2.53;;;;;;;;;;5056521;28;20830;-79
2023/09/21 08:41:53;;;;;;;4.40;2.30;;;;;;;;;;5056466;28;20484;-81
2023/09/21 08:44:21;;;;;;;4.93;2.50;;;;;;;;;;5056138;28;20448;-79
2023/09/21 08:46:49;;;;;;;4.37;2.67;;;;;;;;;;5056379;28;20449;-81
2023/09/21 08:49:18;;;;;;;3.00;2.70;;;;;;;;;;5056331;28;20452;-81
2023/09/21 08:51:45;;;;;;;4.80;2.50;;;;;;;;;;5056655;28;20472;-81
2023/09/21 08:54:14;;;;;;;3.13;2.40;;;;;;;;;;5056634;28;20935;-81
2023/09/21 08:56:43;;;;;;;3.27;2.43;;;;;;;;;;5056028;28;20455;-81
2023/09/21 08:59:10;;;;;;;3.20;2.83;;;;;;;;;;5056740;28;20832;-81
2023/09/21 09:01:37;;;;;;;2.60;2.37;;;;;;;;;;5056079;28;20492;-81
2023/09/21 09:04:05;;;;;;;2.90;2.20;;;;;;;;;;5056285;28;20460;-81
2023/09/21 09:06:34;;;;;;;3.33;2.43;;;;;;;;;;5056293;28;20452;-81
2023/09/21 09:09:01;;;;;;;4.27;2.50;;;;;;;;;;5056152;28;20448;-81
2023/09/21 09:11:35;;;;;;;2.73;2.30;;;;;;;;;;5056600;28;20476;-81
2023/09/21 09:14:02;;;;;;;3.07;2.53;;;;;;;;;;5056217;28;20457;-82
2023/09/21 09:16:30;;;;;;;3.03;2.73;;;;;;;;;;5056230;28;20544;-81
2023/09/21 09:18:57;;;;;;;3.60;2.57;;;;;;;;;;5055794;28;20448;-81
2023/09/21 09:21:25;;;;;;;3.63;2.80;;;;;;;;;;5056051;28;20543;-81
2023/09/21 09:23:53;;;;;;;3.90;2.53;;;;;;;;;;5056155;28;20511;-81
2023/09/21 09:26:20;;;;;;;5.20;2.23;;;;;;;;;;5055731;28;20453;-81
2023/09/21 09:28:48;;;;;;;3.87;2.23;;;;;;;;;;5055253;28;20457;-81
2023/09/21 09:31:17;;;;;;;6.67;3.27;;;;;;;;;;5055996;28;20523;-81
2023/09/21 09:33:46;;;;;;;5.90;2.93;;;;;;;;;;5056124;28;20453;-81
2023/09/21 09:36:14;;;;;;;7.20;2.87;;;;;;;;;;5056079;28;20445;-81
2023/09/21 09:38:42;;;;;;;3.87;3.00;;;;;;;;;;5055841;28;20452;-82
2023/09/21 09:41:14;;;;;;;4.10;2.90;;;;;;;;;;5055147;28;21004;-82
2023/09/21 09:43:42;;;;;;;7.27;2.93;;;;;;;;;;5055323;28;20832;-81
2023/09/21 09:46:11;;;;;;;5.47;2.97;;;;;;;;;;5055594;28;20445;-81
2023/09/21 09:48:40;;;;;;;5.80;3.03;;;;;;;;;;5055546;28;20510;-81
2023/09/21 09:51:09;;;;;;;3.50;2.60;;;;;;;;;;5055362;28;20465;-81
2023/09/21 09:53:37;;;;;;;2.80;2.37;;;;;;;;;;5055777;28;20472;-81
2023/09/21 09:56:07;;;;;;;5.17;2.70;;;;;;;;;;5055494;28;20865;-81
2023/09/21 09:58:37;;;;;;;4.10;3.03;;;;;;;;;;5055123;28;20440;-82
2023/09/21 10:01:07;;;;;;;5.30;2.37;;;;;;;;;;5056617;28;20567;-81
2023/09/21 10:03:35;;;;;;;5.60;2.47;;;;;;;;;;5056908;28;20877;-80
2023/09/21 10:06:03;;;;;;;3.67;2.60;;;;;;;;;;5056784;28;20453;-82
2023/09/21 10:08:30;;;;;;;4.43;2.37;;;;;;;;;;5055707;28;20536;-80
2023/09/21 10:10:59;;;;;;;6.83;2.50;;;;;;;;;;5054791;28;20464;-79
2023/09/21 10:13:27;;;;;;;4.57;2.30;;;;;;;;;;5056459;28;20449;-81
2023/09/21 10:16:04;;;;;;;4.00;2.60;;;;;;;;;;5057584;28;20444;-81
2023/09/21 10:18:33;;;;;;;2.70;2.20;;;;;;;;;;5057114;28;20459;-81
2023/09/21 10:21:05;;;;;;;5.00;2.70;;;;;;;;;;5057050;28;20488;-81
2023/09/21 10:23:34;;;;;;;4.90;2.30;;;;;;;;;;5055149;28;20441;-81
2023/09/21 10:26:01;;;;;;;2.90;2.60;;;;;;;;;;5061987;28;20475;-81
2023/09/21 10:28:37;;;;;;;3.60;2.60;;;;;;;;;;5074555;28;20989;-81
2023/09/21 10:31:22;;;;;;;2.60;2.40;;;;;;;;;;5074419;28;20475;-81
2023/09/21 10:34:05;;;;;;;3.70;2.53;;;;;;;;;;5075224;28;20436;-81
2023/09/21 10:36:32;;;;;;;3.47;2.00;;;;;;;;;;5075000;28;20474;-80
2023/09/21 10:39:24;;;;;;;9.00;2.50;;;;;;;;;;5073966;28;20522;-81
2023/09/21 10:41:52;;;;;;;3.50;2.70;;;;;;;;;;5074748;28;20476;-82
2023/09/21 10:44:38;;;;;;;5.70;2.50;;;;;;;;;;5074603;28;20505;-81
2023/09/21 10:47:06;;;;;;;4.90;2.67;;;;;;;;;;5074464;28;20451;-81
2023/09/21 10:49:35;;;;;;;3.90;2.77;;;;;;;;;;5074473;28;20448;-81
2023/09/21 10:52:03;;;;;;;7.43;2.30;;;;;;;;;;5074418;28;20533;-81
2023/09/21 10:54:30;;;;;;;4.40;2.20;;;;;;;;;;5074235;28;20467;-81
2023/09/21 10:56:57;;;;;;;3.40;2.87;;;;;;;;;;5074239;28;21011;-81
2023/09/21 10:59:29;;;;;;;2.57;2.37;;;;;;;;;;5075775;28;20446;-81
2023/09/21 11:01:56;;;;;;;3.40;3.07;;;;;;;;;;5074255;28;20484;-81
2023/09/21 11:04:25;;;;;;;3.90;2.37;;;;;;;;;;5074244;28;20456;-81
2023/09/21 11:06:52;;;;;;;3.57;2.93;;;;;;;;;;5073615;28;20454;-81
2023/09/21 11:09:19;;;;;;;4.40;2.50;;;;;;;;;;5073876;28;20462;-81
2023/09/21 11:11:47;;;;;;;3.00;2.10;;;;;;;;;;5073644;28;20472;-80
2023/09/21 11:14:16;;;;;;;6.80;5.10;;;;;;;;;;5073265;28;20995;-81
2023/09/21 11:16:43;;;;;;;3.63;2.90;;;;;;;;;;5073634;28;20455;-81
2023/09/21 11:19:11;;;;;;;3.23;2.30;;;;;;;;;;5073918;28;20456;-82
2023/09/21 11:21:40;;;;;;;3.10;2.80;;;;;;;;;;5073457;28;20511;-81
2023/09/21 11:24:08;;;;;;;3.47;2.17;;;;;;;;;;5073502;28;20555;-82
2023/09/21 11:26:35;;;;;;;3.47;2.73;;;;;;;;;;5073564;28;20498;-81
2023/09/21 11:29:03;;;;;;;2.73;2.53;;;;;;;;;;5073598;28;20551;-81
2023/09/21 11:31:31;;;;;;;6.97;3.43;;;;;;;;;;5073375;28;20490;-80
2023/09/21 11:34:07;;;;;;;6.13;3.80;;;;;;;;;;5074226;28;20483;-78
2023/09/21 11:36:34;;;;;;;3.70;3.03;;;;;;;;;;5073443;28;20447;-80
2023/09/21 11:39:07;;;;;;;5.10;2.90;;;;;;;;;;5073469;28;20839;-80
2023/09/21 11:41:34;;;;;;;5.57;3.30;;;;;;;;;;5073479;28;20484;-80
2023/09/21 11:44:04;;;;;;;3.30;3.00;;;;;;;;;;5073276;28;20535;-80
2023/09/21 11:46:31;;;;;;;5.00;3.30;;;;;;;;;;5073487;28;20455;-81
2023/09/21 11:48:58;;;;;;;4.73;2.90;;;;;;;;;;5073797;28;20836;-80
2023/09/21 11:51:28;;;;;;;7.53;3.43;;;;;;;;;;5074753;28;20835;-81
2023/09/21 11:53:58;;;;;;;8.40;3.07;;;;;;;;;;5077127;28;20470;-81
2023/09/21 11:56:26;;;;;;;8.87;3.10;;;;;;;;;;5077276;28;20451;-80
2023/09/21 11:58:58;;;;;;;3.37;2.77;;;;;;;;;;5077074;28;20517;-81
2023/09/21 12:01:27;;;;;;;3.97;2.80;;;;;;;;;;5077284;28;20494;-81
2023/09/21 12:03:56;;;;;;;3.10;2.80;;;;;;;;;;5076868;28;20483;-80
2023/09/21 12:06:27;;;;;;;4.00;2.60;;;;;;;;;;5077002;28;20831;-80
2023/09/21 12:08:54;;;;;;;5.03;2.77;;;;;;;;;;5076921;28;20440;-81
2023/09/21 12:11:21;;;;;;;4.50;2.70;;;;;;;;;;5076875;28;20868;-81
2023/09/21 12:13:50;;;;;;;4.10;2.47;;;;;;;;;;5077149;28;20942;-81
2023/09/21 12:16:17;;;;;;;3.40;2.77;;;;;;;;;;5077149;28;20463;-82
2023/09/21 12:18:44;;;;;;;3.87;2.67;;;;;;;;;;5076761;28;20463;-82
2023/09/21 12:21:18;;;;;;;3.20;2.70;;;;;;;;;;5076765;28;20497;-81
2023/09/21 12:23:45;;;;;;;8.33;2.90;;;;;;;;;;5076632;28;20450;-81
2023/09/21 12:26:13;;;;;;;5.83;2.83;;;;;;;;;;5076898;28;20470;-81
2023/09/21 12:28:42;;;;;;;3.30;2.43;;;;;;;;;;5076397;28;20463;-81
2023/09/21 12:31:13;;;;;;;3.57;2.80;;;;;;;;;;5076696;28;20527;-81
2023/09/21 12:33:41;;;;;;;6.10;2.67;;;;;;;;;;5076310;28;20452;-80
2023/09/21 12:36:12;;;;;;;4.77;2.93;;;;;;;;;;5075977;28;20460;-82
2023/09/21 12:38:40;;;;;;;6.43;3.40;;;;;;;;;;5075994;28;20571;-81
2023/09/21 12:41:09;;;;;;;4.13;2.90;;;;;;;;;;5075916;28;20475;-81
2023/09/21 12:43:38;;;;;;;2.60;2.27;;;;;;;;;;5076633;28;20497;-81
2023/09/21 12:46:08;;;;;;;3.70;3.40;;;;;;;;;;5076450;28;20491;-82
2023/09/21 12:48:38;;;;;;;7.10;2.80;;;;;;;;;;5076620;28;20444;-80
2023/09/21 12:51:05;;;;;;;4.60;2.83;;;;;;;;;;5075836;28;20562;-81
2023/09/21 12:53:32;;;;;;;3.13;2.60;;;;;;;;;;5075837;28;20463;-81
2023/09/21 12:55:59;;;;;;;5.20;3.40;;;;;;;;;;5075819;28;20455;-80
2023/09/21 12:58:29;;;;;;;9.07;3.43;;;;;;;;;;5075574;28;20452;-81
2023/09/21 13:00:57;;;;;;;3.10;2.80;;;;;;;;;;5075825;28;20475;-81
2023/09/21 13:03:24;;;;;;;5.70;3.60;;;;;;;;;;5074871;28;20444;-80
2023/09/21 13:05:52;;;;;;;3.47;3.10;;;;;;;;;;5076170;28;20432;-80
2023/09/21 13:08:20;;;;;;;5.37;2.80;;;;;;;;;;5075606;28;20973;-80
2023/09/21 13:10:47;;;;;;;7.03;3.00;;;;;;;;;;5075771;28;20978;-80
2023/09/21 13:13:14;;;;;;;4.23;3.27;;;;;;;;;;5075762;28;20551;-81
2023/09/21 13:15:41;;;;;;;3.30;3.00;;;;;;;;;;5075963;28;20439;-80
2023/09/21 13:18:10;;;;;;;3.50;3.20;;;;;;;;;;5075362;28;20451;-80
2023/09/21 13:20:37;;;;;;;7.07;2.90;;;;;;;;;;5075898;28;20490;-80
2023/09/21 13:23:06;;;;;;;5.37;2.93;;;;;;;;;;5076182;28;20502;-80
2023/09/21 13:25:33;;;;;;;14.50;3.03;;;;;;;;;;5075757;28;20814;-80
2023/09/21 13:28:00;;;;;;;2.87;2.60;;;;;;;;;;5075330;28;20462;-80
2023/09/21 13:30:27;;;;;;;3.60;3.00;;;;;;;;;;5075628;28;20571;-80
2023/09/21 13:32:54;;;;;;;3.93;2.90;;;;;;;;;;5075768;28;20443;-80
2023/09/21 13:35:22;;;;;;;6.93;3.30;;;;;;;;;;5075657;28;20455;-80
2023/09/21 13:37:49;;;;;;;5.07;2.83;;;;;;;;;;5075515;28;20468;-80
2023/09/21 13:40:18;;;;;;;6.77;3.90;;;;;;;;;;5074968;28;20542;-80
2023/09/21 13:42:45;;;;;;;5.40;3.43;;;;;;;;;;5075664;28;20549;-81
2023/09/21 13:45:13;;;;;;;5.10;3.63;;;;;;;;;;5075202;28;20447;-80
2023/09/21 13:47:40;;;;;;;7.40;2.77;;;;;;;;;;5075987;28;20443;-81
2023/09/21 13:50:07;;;;;;;4.70;3.30;;;;;;;;;;5075082;28;20849;-81
2023/09/21 13:52:36;;;;;;;7.37;3.00;;;;;;;;;;5075567;28;20440;-80
2023/09/21 13:55:03;;;;;;;3.87;2.80;;;;;;;;;;5075850;28;20807;-80
2023/09/21 13:57:31;;;;;;;6.43;2.97;;;;;;;;;;5075339;28;20463;-80
2023/09/21 13:59:58;;;;;;;9.03;3.00;;;;;;;;;;5075531;28;20472;-80
2023/09/21 14:02:27;;;;;;;6.00;3.60;;;;;;;;;;5074959;28;20514;-80
2023/09/21 14:04:54;;;;;;;10.17;3.00;;;;;;;;;;5075477;28;20980;-81
2023/09/21 14:07:21;;;;;;;4.80;4.30;;;;;;;;;;5075103;28;20451;-79
2023/09/21 14:09:48;;;;;;;4.47;3.67;;;;;;;;;;5075620;28;20498;-79
2023/09/21 14:12:15;;;;;;;6.03;3.57;;;;;;;;;;5075580;28;20440;-79
2023/09/21 14:14:44;;;;;;;10.13;3.70;;;;;;;;;;5074033;28;20440;-80
2023/09/21 14:17:11;;;;;;;5.67;3.90;;;;;;;;;;5075086;28;20977;-80
2023/09/21 14:19:38;;;;;;;5.10;3.93;;;;;;;;;;5075423;28;20462;-79
2023/09/21 14:22:06;;;;;;;5.23;3.77;;;;;;;;;;5075455;28;20491;-80
2023/09/21 14:24:33;;;;;;;7.60;3.20;;;;;;;;;;5075423;28;20517;-80
2023/09/21 14:27:00;;;;;;;7.63;4.00;;;;;;;;;;5075774;28;20484;-79
2023/09/21 14:29:27;;;;;;;6.07;3.27;;;;;;;;;;5075344;28;20938;-79
2023/09/21 14:31:56;;;;;;;5.20;3.43;;;;;;;;;;5075306;28;20447;-81
2023/09/21 14:34:23;;;;;;;4.80;3.00;;;;;;;;;;5074467;28;20973;-81
2023/09/21 14:36:51;;;;;;;5.93;3.27;;;;;;;;;;5074321;28;20490;-81
2023/09/21 14:39:18;;;;;;;8.97;3.90;;;;;;;;;;5074321;28;20452;-81
2023/09/21 14:41:45;;;;;;;9.77;3.37;;;;;;;;;;5074190;28;20464;-81
2023/09/21 14:44:12;;;;;;;7.27;4.50;;;;;;;;;;5074411;28;20970;-80
2023/09/21 14:46:40;;;;;;;4.23;3.10;;;;;;;;;;5074817;28;20443;-81